LGPZ/PVK METAR and TAF weather

Enter ICAO airport designator
Station Type Date Time Source
LGPZ METAR 2019/04/18 21:50 UTC NOAA

LGPZ 182150Z 07010KT 9999 SCT020 SCT070 13/09 Q1024


Station Type Date Time Source
LGPZ Decoded METAR 2019/04/18 21:50 UTC NOAA

Aktion Airport , Greece (LGPZ) 38-37N 020-46E 4M
Apr 18, 2019 - 05:50 PM EDT / 2019.04.18 2150 UTC
Wind: from the ENE (070 degrees) at 12 MPH (10 KT):0
Visibility: greater than 7 mile(s):0
Sky conditions: partly cloudy
Temperature: 55 F (13 C)
Dew Point: 48 F (9 C)
Relative Humidity: 76%
Pressure (altimeter): 30.24 in. Hg (1024 hPa)
ob: LGPZ 182150Z 07010KT 9999 SCT020 SCT070 13/09 Q1024
cycle: 22

Station Type Date Time Source
LGPZ TAF 2019/04/18 18:12 UTC NOAA

TAF TAF LGPZ 181700Z 1818/1918 07010KT 9999 FEW018 SCT020 BKN070 PROB30
TEMPO 1912/1915 3000 TSRA SCT015 FEW018CB BKN025 BKN080
BECMG 1910/1912 27018KT

Example: see airport list